sensor_id;sensor_type;location;lat;lon;timestamp;P1;durP1;ratioP1;P2;durP2;ratioP2
36585;SDS011;22591;48.314;11.562;2022-07-29T00:02:00;3.38;;;2.30;;
36585;SDS011;22591;48.314;11.562;2022-07-29T00:04:25;2.97;;;2.28;;
36585;SDS011;22591;48.314;11.562;2022-07-29T00:06:51;3.33;;;2.00;;
36585;SDS011;22591;48.314;11.562;2022-07-29T00:09:16;2.92;;;2.45;;
36585;SDS011;22591;48.314;11.562;2022-07-29T00:11:42;2.80;;;2.40;;
36585;SDS011;22591;48.314;11.562;2022-07-29T00:14:08;6.30;;;2.67;;
36585;SDS011;22591;48.314;11.562;2022-07-29T00:16:33;2.42;;;2.22;;
36585;SDS011;22591;48.314;11.562;2022-07-29T00:18:59;2.45;;;2.25;;
36585;SDS011;22591;48.314;11.562;2022-07-29T00:21:25;4.10;;;2.30;;
36585;SDS011;22591;48.314;11.562;2022-07-29T00:23:50;3.20;;;2.80;;
36585;SDS011;22591;48.314;11.562;2022-07-29T00:26:16;3.63;;;2.38;;
36585;SDS011;22591;48.314;11.562;2022-07-29T00:28:41;2.60;;;2.40;;
36585;SDS011;22591;48.314;11.562;2022-07-29T00:31:07;2.70;;;2.50;;
36585;SDS011;22591;48.314;11.562;2022-07-29T00:33:33;2.53;;;2.33;;
36585;SDS011;22591;48.314;11.562;2022-07-29T00:35:58;5.78;;;2.25;;
36585;SDS011;22591;48.314;11.562;2022-07-29T00:38:24;2.83;;;2.22;;
36585;SDS011;22591;48.314;11.562;2022-07-29T00:40:49;2.60;;;2.40;;
36585;SDS011;22591;48.314;11.562;2022-07-29T00:43:16;2.40;;;2.30;;
36585;SDS011;22591;48.314;11.562;2022-07-29T00:45:42;4.00;;;2.25;;
36585;SDS011;22591;48.314;11.562;2022-07-29T00:48:08;3.90;;;2.33;;
36585;SDS011;22591;48.314;11.562;2022-07-29T00:50:34;2.50;;;2.30;;
36585;SDS011;22591;48.314;11.562;2022-07-29T00:53:02;2.33;;;2.22;;
36585;SDS011;22591;48.314;11.562;2022-07-29T00:55:29;2.42;;;2.33;;
36585;SDS011;22591;48.314;11.562;2022-07-29T00:57:55;2.20;;;2.00;;
36585;SDS011;22591;48.314;11.562;2022-07-29T01:00:23;2.13;;;2.03;;
36585;SDS011;22591;48.314;11.562;2022-07-29T01:02:50;2.30;;;2.20;;
36585;SDS011;22591;48.314;11.562;2022-07-29T01:05:16;4.07;;;2.30;;
36585;SDS011;22591;48.314;11.562;2022-07-29T01:07:44;2.60;;;2.38;;
36585;SDS011;22591;48.314;11.562;2022-07-29T01:10:12;4.32;;;2.03;;
36585;SDS011;22591;48.314;11.562;2022-07-29T01:12:39;3.30;;;2.20;;
36585;SDS011;22591;48.314;11.562;2022-07-29T01:15:06;2.08;;;1.98;;
36585;SDS011;22591;48.314;11.562;2022-07-29T01:22:46;2.35;;;2.00;;
36585;SDS011;22591;48.314;11.562;2022-07-29T01:26:01;9.73;;;2.47;;
36585;SDS011;22591;48.314;11.562;2022-07-29T01:29:03;2.00;;;1.90;;
36585;SDS011;22591;48.314;11.562;2022-07-29T01:31:42;12.73;;;2.58;;
36585;SDS011;22591;48.314;11.562;2022-07-29T01:34:09;2.55;;;2.03;;
36585;SDS011;22591;48.314;11.562;2022-07-29T01:39:33;2.00;;;1.90;;
36585;SDS011;22591;48.314;11.562;2022-07-29T01:42:05;2.15;;;2.05;;
36585;SDS011;22591;48.314;11.562;2022-07-29T01:44:57;1.90;;;1.80;;
36585;SDS011;22591;48.314;11.562;2022-07-29T01:47:48;2.50;;;2.30;;
36585;SDS011;22591;48.314;11.562;2022-07-29T01:50:16;2.20;;;2.10;;
36585;SDS011;22591;48.314;11.562;2022-07-29T01:53:04;2.50;;;2.17;;
36585;SDS011;22591;48.314;11.562;2022-07-29T01:55:32;2.58;;;2.40;;
36585;SDS011;22591;48.314;11.562;2022-07-29T01:58:02;1.83;;;1.70;;
36585;SDS011;22591;48.314;11.562;2022-07-29T02:00:29;1.92;;;1.83;;
36585;SDS011;22591;48.314;11.562;2022-07-29T02:02:57;3.53;;;2.00;;
36585;SDS011;22591;48.314;11.562;2022-07-29T02:05:25;2.45;;;1.95;;
36585;SDS011;22591;48.314;11.562;2022-07-29T02:07:53;1.70;;;1.60;;
36585;SDS011;22591;48.314;11.562;2022-07-29T02:10:23;2.20;;;2.00;;
36585;SDS011;22591;48.314;11.562;2022-07-29T02:12:52;1.88;;;1.77;;
36585;SDS011;22591;48.314;11.562;2022-07-29T02:15:20;2.17;;;2.05;;
36585;SDS011;22591;48.314;11.562;2022-07-29T02:17:55;2.38;;;2.20;;
36585;SDS011;22591;48.314;11.562;2022-07-29T02:20:27;1.50;;;1.40;;
36585;SDS011;22591;48.314;11.562;2022-07-29T02:22:54;2.42;;;2.28;;
36585;SDS011;22591;48.314;11.562;2022-07-29T02:25:21;2.83;;;2.63;;
36585;SDS011;22591;48.314;11.562;2022-07-29T02:27:48;2.80;;;2.60;;
36585;SDS011;22591;48.314;11.562;2022-07-29T02:30:16;2.50;;;2.30;;
36585;SDS011;22591;48.314;11.562;2022-07-29T02:32:43;3.95;;;2.58;;
36585;SDS011;22591;48.314;11.562;2022-07-29T02:35:12;2.50;;;2.30;;
36585;SDS011;22591;48.314;11.562;2022-07-29T02:37:39;2.50;;;2.40;;
36585;SDS011;22591;48.314;11.562;2022-07-29T02:40:06;2.20;;;2.10;;
36585;SDS011;22591;48.314;11.562;2022-07-29T02:42:35;2.25;;;2.13;;
36585;SDS011;22591;48.314;11.562;2022-07-29T02:45:04;2.33;;;1.88;;
36585;SDS011;22591;48.314;11.562;2022-07-29T02:47:34;2.20;;;1.95;;
36585;SDS011;22591;48.314;11.562;2022-07-29T02:55:44;2.83;;;2.13;;
36585;SDS011;22591;48.314;11.562;2022-07-29T02:58:27;2.00;;;1.90;;
36585;SDS011;22591;48.314;11.562;2022-07-29T03:01:08;2.28;;;2.17;;
36585;SDS011;22591;48.314;11.562;2022-07-29T03:03:56;2.10;;;2.00;;
36585;SDS011;22591;48.314;11.562;2022-07-29T03:06:23;2.67;;;2.45;;
36585;SDS011;22591;48.314;11.562;2022-07-29T03:08:50;2.50;;;2.30;;
36585;SDS011;22591;48.314;11.562;2022-07-29T03:11:16;2.50;;;2.40;;
36585;SDS011;22591;48.314;11.562;2022-07-29T03:13:42;3.33;;;1.98;;
36585;SDS011;22591;48.314;11.562;2022-07-29T03:16:09;2.08;;;1.98;;
36585;SDS011;22591;48.314;11.562;2022-07-29T03:18:35;2.60;;;2.50;;
36585;SDS011;22591;48.314;11.562;2022-07-29T03:21:02;4.20;;;2.30;;
36585;SDS011;22591;48.314;11.562;2022-07-29T03:23:28;2.10;;;2.00;;
36585;SDS011;22591;48.314;11.562;2022-07-29T03:25:54;3.75;;;2.28;;
36585;SDS011;22591;48.314;11.562;2022-07-29T03:28:20;3.08;;;2.55;;
36585;SDS011;22591;48.314;11.562;2022-07-29T03:30:47;2.10;;;2.00;;
36585;SDS011;22591;48.314;11.562;2022-07-29T03:33:12;2.35;;;2.25;;
36585;SDS011;22591;48.314;11.562;2022-07-29T03:35:38;2.67;;;2.10;;
36585;SDS011;22591;48.314;11.562;2022-07-29T03:38:04;2.50;;;2.40;;
36585;SDS011;22591;48.314;11.562;2022-07-29T03:40:33;3.00;;;2.78;;
36585;SDS011;22591;48.314;11.562;2022-07-29T03:43:03;2.90;;;2.70;;
36585;SDS011;22591;48.314;11.562;2022-07-29T03:45:32;2.70;;;2.47;;
36585;SDS011;22591;48.314;11.562;2022-07-29T03:48:03;2.80;;;2.60;;
36585;SDS011;22591;48.314;11.562;2022-07-29T03:50:32;2.70;;;2.50;;
36585;SDS011;22591;48.314;11.562;2022-07-29T03:52:59;2.70;;;2.58;;
36585;SDS011;22591;48.314;11.562;2022-07-29T03:55:26;2.78;;;2.50;;
36585;SDS011;22591;48.314;11.562;2022-07-29T03:57:54;2.72;;;2.63;;
36585;SDS011;22591;48.314;11.562;2022-07-29T04:00:23;3.10;;;2.90;;
36585;SDS011;22591;48.314;11.562;2022-07-29T04:02:50;4.13;;;3.38;;
36585;SDS011;22591;48.314;11.562;2022-07-29T04:05:16;3.88;;;3.58;;
36585;SDS011;22591;48.314;11.562;2022-07-29T04:07:46;3.60;;;3.30;;
36585;SDS011;22591;48.314;11.562;2022-07-29T04:10:12;4.15;;;2.90;;
36585;SDS011;22591;48.314;11.562;2022-07-29T04:12:40;3.22;;;3.03;;
36585;SDS011;22591;48.314;11.562;2022-07-29T04:15:06;2.45;;;2.35;;
36585;SDS011;22591;48.314;11.562;2022-07-29T04:17:33;2.47;;;2.28;;
36585;SDS011;22591;48.314;11.562;2022-07-29T04:19:58;2.67;;;2.42;;
36585;SDS011;22591;48.314;11.562;2022-07-29T04:22:24;2.53;;;2.42;;
36585;SDS011;22591;48.314;11.562;2022-07-29T04:24:50;2.33;;;2.22;;
36585;SDS011;22591;48.314;11.562;2022-07-29T04:27:15;2.28;;;2.08;;
36585;SDS011;22591;48.314;11.562;2022-07-29T04:29:41;2.33;;;2.22;;
36585;SDS011;22591;48.314;11.562;2022-07-29T04:32:06;2.38;;;2.20;;
36585;SDS011;22591;48.314;11.562;2022-07-29T04:34:32;4.28;;;2.75;;
36585;SDS011;22591;48.314;11.562;2022-07-29T04:36:57;2.13;;;2.03;;
36585;SDS011;22591;48.314;11.562;2022-07-29T04:39:23;3.80;;;2.70;;
36585;SDS011;22591;48.314;11.562;2022-07-29T04:41:50;2.22;;;2.05;;
36585;SDS011;22591;48.314;11.562;2022-07-29T04:44:16;2.50;;;2.30;;
36585;SDS011;22591;48.314;11.562;2022-07-29T04:46:42;2.92;;;2.60;;
36585;SDS011;22591;48.314;11.562;2022-07-29T04:49:08;2.72;;;2.55;;
36585;SDS011;22591;48.314;11.562;2022-07-29T04:51:34;2.47;;;2.22;;
36585;SDS011;22591;48.314;11.562;2022-07-29T04:53:59;2.67;;;2.58;;
36585;SDS011;22591;48.314;11.562;2022-07-29T04:56:25;2.72;;;2.53;;
36585;SDS011;22591;48.314;11.562;2022-07-29T04:58:51;2.35;;;2.25;;
36585;SDS011;22591;48.314;11.562;2022-07-29T05:01:17;2.70;;;2.50;;
36585;SDS011;22591;48.314;11.562;2022-07-29T05:03:44;2.45;;;2.33;;
36585;SDS011;22591;48.314;11.562;2022-07-29T05:06:10;2.30;;;2.15;;
36585;SDS011;22591;48.314;11.562;2022-07-29T05:08:36;2.60;;;2.40;;
36585;SDS011;22591;48.314;11.562;2022-07-29T05:11:02;2.67;;;2.47;;
36585;SDS011;22591;48.314;11.562;2022-07-29T05:13:28;2.95;;;2.75;;
36585;SDS011;22591;48.314;11.562;2022-07-29T05:15:53;3.03;;;2.67;;
36585;SDS011;22591;48.314;11.562;2022-07-29T05:18:19;2.28;;;2.05;;
36585;SDS011;22591;48.314;11.562;2022-07-29T05:20:44;2.88;;;2.00;;
36585;SDS011;22591;48.314;11.562;2022-07-29T05:23:11;1.95;;;1.63;;
36585;SDS011;22591;48.314;11.562;2022-07-29T05:25:39;2.90;;;1.63;;
36585;SDS011;22591;48.314;11.562;2022-07-29T05:28:05;2.17;;;2.05;;
36585;SDS011;22591;48.314;11.562;2022-07-29T05:30:30;1.92;;;1.77;;
36585;SDS011;22591;48.314;11.562;2022-07-29T05:32:56;2.00;;;1.90;;
36585;SDS011;22591;48.314;11.562;2022-07-29T05:35:22;1.88;;;1.77;;
36585;SDS011;22591;48.314;11.562;2022-07-29T05:37:47;1.98;;;1.88;;
36585;SDS011;22591;48.314;11.562;2022-07-29T05:40:13;2.15;;;2.05;;
36585;SDS011;22591;48.314;11.562;2022-07-29T05:42:39;2.08;;;1.98;;
36585;SDS011;22591;48.314;11.562;2022-07-29T05:45:04;4.07;;;2.30;;
36585;SDS011;22591;48.314;11.562;2022-07-29T05:47:30;2.10;;;2.00;;
36585;SDS011;22591;48.314;11.562;2022-07-29T05:49:56;2.05;;;1.88;;
36585;SDS011;22591;48.314;11.562;2022-07-29T05:52:22;6.32;;;2.20;;
36585;SDS011;22591;48.314;11.562;2022-07-29T05:54:47;3.17;;;2.42;;
36585;SDS011;22591;48.314;11.562;2022-07-29T05:57:20;2.47;;;2.28;;
36585;SDS011;22591;48.314;11.562;2022-07-29T05:59:47;2.40;;;2.20;;
36585;SDS011;22591;48.314;11.562;2022-07-29T06:02:13;2.85;;;2.58;;
36585;SDS011;22591;48.314;11.562;2022-07-29T06:04:38;3.33;;;3.05;;
36585;SDS011;22591;48.314;11.562;2022-07-29T06:07:04;2.75;;;2.55;;
36585;SDS011;22591;48.314;11.562;2022-07-29T06:09:30;4.35;;;2.45;;
36585;SDS011;22591;48.314;11.562;2022-07-29T06:11:56;3.13;;;2.20;;
36585;SDS011;22591;48.314;11.562;2022-07-29T06:14:22;2.20;;;2.10;;
36585;SDS011;22591;48.314;11.562;2022-07-29T06:16:48;1.98;;;1.88;;
36585;SDS011;22591;48.314;11.562;2022-07-29T06:19:14;2.47;;;2.28;;
36585;SDS011;22591;48.314;11.562;2022-07-29T06:21:42;2.00;;;1.90;;
36585;SDS011;22591;48.314;11.562;2022-07-29T06:24:10;1.80;;;1.70;;
36585;SDS011;22591;48.314;11.562;2022-07-29T06:26:36;1.75;;;1.65;;
36585;SDS011;22591;48.314;11.562;2022-07-29T06:29:02;2.92;;;1.67;;
36585;SDS011;22591;48.314;11.562;2022-07-29T06:31:28;1.88;;;1.77;;
36585;SDS011;22591;48.314;11.562;2022-07-29T06:33:53;1.52;;;1.42;;
36585;SDS011;22591;48.314;11.562;2022-07-29T06:36:19;1.50;;;1.35;;
36585;SDS011;22591;48.314;11.562;2022-07-29T06:38:44;1.88;;;1.40;;
36585;SDS011;22591;48.314;11.562;2022-07-29T06:41:10;1.73;;;1.30;;
36585;SDS011;22591;48.314;11.562;2022-07-29T06:43:46;1.67;;;1.50;;
36585;SDS011;22591;48.314;11.562;2022-07-29T06:46:13;1.63;;;1.52;;
36585;SDS011;22591;48.314;11.562;2022-07-29T06:48:40;3.97;;;1.40;;
36585;SDS011;22591;48.314;11.562;2022-07-29T06:51:07;2.38;;;1.40;;
36585;SDS011;22591;48.314;11.562;2022-07-29T06:53:34;1.50;;;1.40;;
36585;SDS011;22591;48.314;11.562;2022-07-29T06:56:01;1.50;;;1.40;;
36585;SDS011;22591;48.314;11.562;2022-07-29T06:58:27;1.83;;;1.73;;
36585;SDS011;22591;48.314;11.562;2022-07-29T07:00:53;2.03;;;1.23;;
36585;SDS011;22591;48.314;11.562;2022-07-29T07:03:20;1.20;;;1.20;;
36585;SDS011;22591;48.314;11.562;2022-07-29T07:05:46;1.55;;;1.45;;
36585;SDS011;22591;48.314;11.562;2022-07-29T07:08:12;1.58;;;1.48;;
36585;SDS011;22591;48.314;11.562;2022-07-29T07:10:38;1.40;;;1.30;;
36585;SDS011;22591;48.314;11.562;2022-07-29T07:13:04;1.60;;;1.50;;
36585;SDS011;22591;48.314;11.562;2022-07-29T07:15:31;1.48;;;1.38;;
36585;SDS011;22591;48.314;11.562;2022-07-29T07:17:56;1.48;;;1.35;;
36585;SDS011;22591;48.314;11.562;2022-07-29T07:20:22;1.58;;;1.50;;
36585;SDS011;22591;48.314;11.562;2022-07-29T07:22:48;1.45;;;1.23;;
36585;SDS011;22591;48.314;11.562;2022-07-29T07:25:14;1.75;;;1.30;;
36585;SDS011;22591;48.314;11.562;2022-07-29T07:27:40;1.23;;;1.23;;
36585;SDS011;22591;48.314;11.562;2022-07-29T07:30:06;1.65;;;1.40;;
36585;SDS011;22591;48.314;11.562;2022-07-29T07:32:33;1.80;;;1.40;;
36585;SDS011;22591;48.314;11.562;2022-07-29T07:34:59;4.82;;;1.55;;
36585;SDS011;22591;48.314;11.562;2022-07-29T07:37:25;9.13;;;1.65;;
36585;SDS011;22591;48.314;11.562;2022-07-29T07:39:51;1.67;;;1.58;;
36585;SDS011;22591;48.314;11.562;2022-07-29T07:42:17;1.58;;;1.48;;
36585;SDS011;22591;48.314;11.562;2022-07-29T07:44:43;1.30;;;1.20;;
36585;SDS011;22591;48.314;11.562;2022-07-29T07:47:10;1.58;;;1.40;;
36585;SDS011;22591;48.314;11.562;2022-07-29T07:49:36;1.40;;;1.30;;
36585;SDS011;22591;48.314;11.562;2022-07-29T07:52:02;1.92;;;1.35;;
36585;SDS011;22591;48.314;11.562;2022-07-29T07:54:28;2.22;;;1.52;;
36585;SDS011;22591;48.314;11.562;2022-07-29T07:56:54;1.65;;;1.55;;
36585;SDS011;22591;48.314;11.562;2022-07-29T07:59:19;2.28;;;1.30;;
36585;SDS011;22591;48.314;11.562;2022-07-29T08:01:45;3.60;;;1.42;;
36585;SDS011;22591;48.314;11.562;2022-07-29T08:04:11;1.55;;;1.45;;
36585;SDS011;22591;48.314;11.562;2022-07-29T08:06:36;1.38;;;1.27;;
36585;SDS011;22591;48.314;11.562;2022-07-29T08:09:05;2.85;;;1.60;;
36585;SDS011;22591;48.314;11.562;2022-07-29T08:11:31;3.67;;;1.75;;
36585;SDS011;22591;48.314;11.562;2022-07-29T08:13:56;1.20;;;1.20;;
36585;SDS011;22591;48.314;11.562;2022-07-29T08:16:22;1.42;;;1.33;;
36585;SDS011;22591;48.314;11.562;2022-07-29T08:18:50;1.40;;;1.40;;
36585;SDS011;22591;48.314;11.562;2022-07-29T08:21:15;1.27;;;1.27;;
36585;SDS011;22591;48.314;11.562;2022-07-29T08:23:45;1.70;;;1.60;;
36585;SDS011;22591;48.314;11.562;2022-07-29T08:26:12;1.70;;;1.60;;
36585;SDS011;22591;48.314;11.562;2022-07-29T08:28:39;1.38;;;1.30;;
36585;SDS011;22591;48.314;11.562;2022-07-29T08:31:09;1.13;;;1.13;;
36585;SDS011;22591;48.314;11.562;2022-07-29T08:33:35;1.20;;;1.20;;
36585;SDS011;22591;48.314;11.562;2022-07-29T08:36:00;1.15;;;1.10;;
36585;SDS011;22591;48.314;11.562;2022-07-29T08:38:26;2.90;;;1.30;;
36585;SDS011;22591;48.314;11.562;2022-07-29T08:40:52;2.30;;;1.00;;
36585;SDS011;22591;48.314;11.562;2022-07-29T08:43:18;1.50;;;1.40;;
36585;SDS011;22591;48.314;11.562;2022-07-29T08:45:48;2.05;;;1.05;;
36585;SDS011;22591;48.314;11.562;2022-07-29T08:48:19;3.35;;;1.13;;
36585;SDS011;22591;48.314;11.562;2022-07-29T08:50:46;1.52;;;1.42;;
36585;SDS011;22591;48.314;11.562;2022-07-29T08:53:14;1.15;;;1.05;;
36585;SDS011;22591;48.314;11.562;2022-07-29T08:55:42;1.00;;;1.00;;
36585;SDS011;22591;48.314;11.562;2022-07-29T08:58:09;1.13;;;1.10;;
36585;SDS011;22591;48.314;11.562;2022-07-29T09:00:36;0.90;;;0.90;;
36585;SDS011;22591;48.314;11.562;2022-07-29T09:03:05;1.00;;;1.00;;
36585;SDS011;22591;48.314;11.562;2022-07-29T09:05:33;4.72;;;1.63;;
36585;SDS011;22591;48.314;11.562;2022-07-29T09:07:59;2.30;;;1.25;;
36585;SDS011;22591;48.314;11.562;2022-07-29T09:10:27;0.90;;;0.90;;
36585;SDS011;22591;48.314;11.562;2022-07-29T09:12:56;1.42;;;1.33;;
36585;SDS011;22591;48.314;11.562;2022-07-29T09:15:22;1.17;;;1.13;;
36585;SDS011;22591;48.314;11.562;2022-07-29T09:17:48;1.30;;;1.20;;
36585;SDS011;22591;48.314;11.562;2022-07-29T09:20:16;1.63;;;1.48;;
36585;SDS011;22591;48.314;11.562;2022-07-29T09:22:43;1.48;;;1.38;;
36585;SDS011;22591;48.314;11.562;2022-07-29T09:25:12;1.80;;;1.70;;
36585;SDS011;22591;48.314;11.562;2022-07-29T09:27:37;1.58;;;1.48;;
36585;SDS011;22591;48.314;11.562;2022-07-29T09:30:04;1.52;;;1.48;;
36585;SDS011;22591;48.314;11.562;2022-07-29T09:32:32;2.35;;;1.60;;
36585;SDS011;22591;48.314;11.562;2022-07-29T09:35:14;2.00;;;1.85;;
36585;SDS011;22591;48.314;11.562;2022-07-29T09:37:41;1.98;;;1.45;;
36585;SDS011;22591;48.314;11.562;2022-07-29T09:42:40;1.63;;;1.52;;
36585;SDS011;22591;48.314;11.562;2022-07-29T09:45:06;2.20;;;1.52;;
36585;SDS011;22591;48.314;11.562;2022-07-29T09:47:40;2.08;;;1.88;;
36585;SDS011;22591;48.314;11.562;2022-07-29T09:50:10;4.70;;;1.92;;
36585;SDS011;22591;48.314;11.562;2022-07-29T09:52:46;2.03;;;1.90;;
36585;SDS011;22591;48.314;11.562;2022-07-29T09:55:13;2.20;;;2.10;;
36585;SDS011;22591;48.314;11.562;2022-07-29T09:57:39;3.17;;;2.72;;
36585;SDS011;22591;48.314;11.562;2022-07-29T10:02:32;1.88;;;1.77;;
36585;SDS011;22591;48.314;11.562;2022-07-29T10:05:00;2.22;;;1.95;;
36585;SDS011;22591;48.314;11.562;2022-07-29T10:07:44;1.77;;;1.67;;
36585;SDS011;22591;48.314;11.562;2022-07-29T10:12:52;2.15;;;1.90;;
36585;SDS011;22591;48.314;11.562;2022-07-29T10:15:20;2.17;;;2.05;;
36585;SDS011;22591;48.314;11.562;2022-07-29T10:17:51;2.00;;;1.90;;
36585;SDS011;22591;48.314;11.562;2022-07-29T10:20:18;2.35;;;2.20;;
36585;SDS011;22591;48.314;11.562;2022-07-29T10:22:45;2.08;;;1.98;;
36585;SDS011;22591;48.314;11.562;2022-07-29T10:25:12;2.60;;;2.00;;
36585;SDS011;22591;48.314;11.562;2022-07-29T10:27:40;2.35;;;2.15;;
36585;SDS011;22591;48.314;11.562;2022-07-29T10:30:05;3.03;;;2.10;;
36585;SDS011;22591;48.314;11.562;2022-07-29T10:35:12;2.17;;;2.08;;
36585;SDS011;22591;48.314;11.562;2022-07-29T10:43:51;2.13;;;2.03;;
36585;SDS011;22591;48.314;11.562;2022-07-29T10:46:34;2.28;;;2.15;;
36585;SDS011;22591;48.314;11.562;2022-07-29T10:49:10;5.47;;;2.50;;
36585;SDS011;22591;48.314;11.562;2022-07-29T10:51:53;2.10;;;2.00;;
36585;SDS011;22591;48.314;11.562;2022-07-29T10:59:41;2.47;;;2.28;;
36585;SDS011;22591;48.314;11.562;2022-07-29T11:10:43;2.63;;;2.30;;
36585;SDS011;22591;48.314;11.562;2022-07-29T11:13:08;3.75;;;2.75;;
36585;SDS011;22591;48.314;11.562;2022-07-29T11:18:22;6.28;;;2.75;;
36585;SDS011;22591;48.314;11.562;2022-07-29T11:20:49;2.40;;;2.20;;
36585;SDS011;22591;48.314;11.562;2022-07-29T11:23:22;3.08;;;2.60;;
36585;SDS011;22591;48.314;11.562;2022-07-29T11:28:42;5.00;;;2.70;;
36585;SDS011;22591;48.314;11.562;2022-07-29T11:31:31;2.40;;;2.20;;
36585;SDS011;22591;48.314;11.562;2022-07-29T11:39:31;3.28;;;2.35;;
36585;SDS011;22591;48.314;11.562;2022-07-29T11:42:53;2.33;;;2.13;;
36585;SDS011;22591;48.314;11.562;2022-07-29T11:45:03;3.55;;;2.58;;
36585;SDS011;22591;48.314;11.562;2022-07-29T11:47:36;4.03;;;2.45;;
36585;SDS011;22591;48.314;11.562;2022-07-29T11:50:07;2.20;;;2.03;;
36585;SDS011;22591;48.314;11.562;2022-07-29T11:52:36;2.38;;;2.17;;
36585;SDS011;22591;48.314;11.562;2022-07-29T11:55:08;2.20;;;1.98;;
36585;SDS011;22591;48.314;11.562;2022-07-29T11:57:35;2.20;;;2.10;;
36585;SDS011;22591;48.314;11.562;2022-07-29T12:00:02;3.97;;;2.00;;
36585;SDS011;22591;48.314;11.562;2022-07-29T12:02:39;2.85;;;2.25;;
36585;SDS011;22591;48.314;11.562;2022-07-29T12:05:09;2.28;;;2.05;;
36585;SDS011;22591;48.314;11.562;2022-07-29T12:07:36;2.20;;;1.88;;
36585;SDS011;22591;48.314;11.562;2022-07-29T12:10:03;3.53;;;2.10;;
36585;SDS011;22591;48.314;11.562;2022-07-29T12:12:30;2.38;;;2.17;;
36585;SDS011;22591;48.314;11.562;2022-07-29T12:14:55;2.85;;;2.00;;
36585;SDS011;22591;48.314;11.562;2022-07-29T12:20:00;2.47;;;2.28;;
36585;SDS011;22591;48.314;11.562;2022-07-29T12:22:29;3.13;;;2.10;;
36585;SDS011;22591;48.314;11.562;2022-07-29T12:25:00;4.45;;;2.05;;
36585;SDS011;22591;48.314;11.562;2022-07-29T12:27:44;1.58;;;1.38;;
36585;SDS011;22591;48.314;11.562;2022-07-29T12:30:11;1.98;;;1.80;;
36585;SDS011;22591;48.314;11.562;2022-07-29T12:32:47;2.10;;;1.98;;
36585;SDS011;22591;48.314;11.562;2022-07-29T12:37:44;4.05;;;1.70;;
36585;SDS011;22591;48.314;11.562;2022-07-29T12:40:13;3.20;;;1.80;;
36585;SDS011;22591;48.314;11.562;2022-07-29T12:42:42;5.45;;;1.65;;
36585;SDS011;22591;48.314;11.562;2022-07-29T12:45:36;3.30;;;1.60;;
36585;SDS011;22591;48.314;11.562;2022-07-29T12:48:03;2.35;;;1.80;;
36585;SDS011;22591;48.314;11.562;2022-07-29T12:50:30;2.08;;;1.70;;
36585;SDS011;22591;48.314;11.562;2022-07-29T12:53:07;5.85;;;2.00;;
36585;SDS011;22591;48.314;11.562;2022-07-29T12:55:37;1.52;;;1.42;;
36585;SDS011;22591;48.314;11.562;2022-07-29T12:58:35;2.22;;;1.80;;
36585;SDS011;22591;48.314;11.562;2022-07-29T13:03:43;6.15;;;1.80;;
36585;SDS011;22591;48.314;11.562;2022-07-29T13:09:13;1.83;;;1.73;;
36585;SDS011;22591;48.314;11.562;2022-07-29T13:11:44;2.35;;;1.52;;
36585;SDS011;22591;48.314;11.562;2022-07-29T13:14:13;2.10;;;2.00;;
36585;SDS011;22591;48.314;11.562;2022-07-29T13:17:08;2.67;;;1.95;;
36585;SDS011;22591;48.314;11.562;2022-07-29T13:19:36;1.63;;;1.52;;
36585;SDS011;22591;48.314;11.562;2022-07-29T13:22:06;1.63;;;1.52;;
36585;SDS011;22591;48.314;11.562;2022-07-29T13:24:45;1.88;;;1.70;;
36585;SDS011;22591;48.314;11.562;2022-07-29T13:27:18;2.38;;;1.90;;
36585;SDS011;22591;48.314;11.562;2022-07-29T13:29:46;1.77;;;1.67;;
36585;SDS011;22591;48.314;11.562;2022-07-29T13:32:12;2.35;;;1.67;;
36585;SDS011;22591;48.314;11.562;2022-07-29T13:34:38;3.83;;;1.50;;
36585;SDS011;22591;48.314;11.562;2022-07-29T13:37:05;1.52;;;1.50;;
36585;SDS011;22591;48.314;11.562;2022-07-29T13:39:31;3.63;;;1.40;;
36585;SDS011;22591;48.314;11.562;2022-07-29T13:41:57;1.83;;;1.73;;
36585;SDS011;22591;48.314;11.562;2022-07-29T13:44:23;5.95;;;1.77;;
36585;SDS011;22591;48.314;11.562;2022-07-29T13:46:48;1.85;;;1.75;;
36585;SDS011;22591;48.314;11.562;2022-07-29T13:49:14;1.80;;;1.70;;
36585;SDS011;22591;48.314;11.562;2022-07-29T13:51:40;1.77;;;1.65;;
36585;SDS011;22591;48.314;11.562;2022-07-29T13:54:06;1.73;;;1.58;;
36585;SDS011;22591;48.314;11.562;2022-07-29T13:56:31;2.20;;;1.70;;
36585;SDS011;22591;48.314;11.562;2022-07-29T13:58:57;2.40;;;1.92;;
36585;SDS011;22591;48.314;11.562;2022-07-29T14:01:22;5.80;;;1.70;;
36585;SDS011;22591;48.314;11.562;2022-07-29T14:03:48;2.65;;;1.88;;
36585;SDS011;22591;48.314;11.562;2022-07-29T14:06:14;1.70;;;1.60;;
36585;SDS011;22591;48.314;11.562;2022-07-29T14:08:40;2.05;;;1.95;;
36585;SDS011;22591;48.314;11.562;2022-07-29T14:11:05;3.10;;;1.73;;
36585;SDS011;22591;48.314;11.562;2022-07-29T14:13:31;4.43;;;1.88;;
36585;SDS011;22591;48.314;11.562;2022-07-29T14:15:57;1.60;;;1.50;;
36585;SDS011;22591;48.314;11.562;2022-07-29T14:18:22;4.70;;;1.65;;
36585;SDS011;22591;48.314;11.562;2022-07-29T14:20:48;3.13;;;2.35;;
36585;SDS011;22591;48.314;11.562;2022-07-29T14:23:14;1.80;;;1.70;;
36585;SDS011;22591;48.314;11.562;2022-07-29T14:25:39;1.65;;;1.55;;
36585;SDS011;22591;48.314;11.562;2022-07-29T14:28:06;3.30;;;3.00;;
36585;SDS011;22591;48.314;11.562;2022-07-29T14:30:32;4.85;;;3.60;;
36585;SDS011;22591;48.314;11.562;2022-07-29T14:32:57;2.10;;;1.70;;
36585;SDS011;22591;48.314;11.562;2022-07-29T14:35:23;2.38;;;1.67;;
36585;SDS011;22591;48.314;11.562;2022-07-29T14:37:48;1.92;;;1.77;;
36585;SDS011;22591;48.314;11.562;2022-07-29T14:40:14;5.13;;;1.85;;
36585;SDS011;22591;48.314;11.562;2022-07-29T14:42:40;1.80;;;1.70;;
36585;SDS011;22591;48.314;11.562;2022-07-29T14:45:06;2.75;;;1.60;;
36585;SDS011;22591;48.314;11.562;2022-07-29T14:47:33;4.03;;;2.13;;
36585;SDS011;22591;48.314;11.562;2022-07-29T14:49:58;6.03;;;1.80;;
36585;SDS011;22591;48.314;11.562;2022-07-29T14:52:24;2.22;;;1.95;;
36585;SDS011;22591;48.314;11.562;2022-07-29T14:54:50;4.95;;;1.80;;
36585;SDS011;22591;48.314;11.562;2022-07-29T14:57:15;4.22;;;2.00;;
36585;SDS011;22591;48.314;11.562;2022-07-29T14:59:41;3.80;;;1.80;;
36585;SDS011;22591;48.314;11.562;2022-07-29T15:02:07;2.35;;;2.03;;
36585;SDS011;22591;48.314;11.562;2022-07-29T15:04:32;1.77;;;1.67;;
36585;SDS011;22591;48.314;11.562;2022-07-29T15:06:58;3.47;;;1.92;;
36585;SDS011;22591;48.314;11.562;2022-07-29T15:09:24;5.07;;;1.90;;
36585;SDS011;22591;48.314;11.562;2022-07-29T15:11:49;4.70;;;2.22;;
36585;SDS011;22591;48.314;11.562;2022-07-29T15:14:15;2.35;;;1.98;;
36585;SDS011;22591;48.314;11.562;2022-07-29T15:16:40;2.15;;;1.95;;
36585;SDS011;22591;48.314;11.562;2022-07-29T15:19:07;3.10;;;2.53;;
36585;SDS011;22591;48.314;11.562;2022-07-29T15:21:33;3.22;;;2.20;;
36585;SDS011;22591;48.314;11.562;2022-07-29T15:23:59;2.35;;;2.25;;
36585;SDS011;22591;48.314;11.562;2022-07-29T15:26:24;2.83;;;1.80;;
36585;SDS011;22591;48.314;11.562;2022-07-29T15:28:50;3.00;;;2.30;;
36585;SDS011;22591;48.314;11.562;2022-07-29T15:31:16;3.25;;;2.20;;
36585;SDS011;22591;48.314;11.562;2022-07-29T15:33:43;3.10;;;2.03;;
36585;SDS011;22591;48.314;11.562;2022-07-29T15:36:09;3.75;;;1.95;;
36585;SDS011;22591;48.314;11.562;2022-07-29T15:38:37;2.55;;;2.22;;
36585;SDS011;22591;48.314;11.562;2022-07-29T15:41:03;2.30;;;2.20;;
36585;SDS011;22591;48.314;11.562;2022-07-29T15:43:28;2.72;;;2.47;;
36585;SDS011;22591;48.314;11.562;2022-07-29T15:45:54;2.45;;;2.25;;